createdAt,value
2023-02-22T00:00:49.998Z,46.80
2023-02-22T00:03:24.848Z,43.70
2023-02-22T00:05:55.849Z,43.53
2023-02-22T00:08:30.328Z,41.97
2023-02-22T00:10:58.182Z,44.58
2023-02-22T00:13:29.219Z,42.53
2023-02-22T00:15:57.255Z,45.20
2023-02-22T00:18:28.191Z,47.17
2023-02-22T00:20:56.234Z,45.33
2023-02-22T00:23:25.377Z,46.45
2023-02-22T00:25:53.332Z,42.05
2023-02-22T00:28:21.110Z,43.88
2023-02-22T00:30:49.229Z,43.92
2023-02-22T00:33:17.636Z,46.53
2023-02-22T00:35:46.593Z,42.00
2023-02-22T00:38:15.971Z,41.45
2023-02-22T00:40:45.317Z,41.67
2023-02-22T00:43:13.387Z,42.88
2023-02-22T00:45:41.160Z,44.72
2023-02-22T00:48:09.628Z,45.67
2023-02-22T00:50:37.504Z,41.78
2023-02-22T00:53:07.342Z,40.38
2023-02-22T00:55:36.979Z,40.67
2023-02-22T00:58:07.261Z,39.50
2023-02-22T01:00:37.433Z,38.65
2023-02-22T01:03:05.958Z,39.08
2023-02-22T01:05:34.947Z,39.70
2023-02-22T01:08:04.102Z,39.97
2023-02-22T01:10:32.352Z,41.45
2023-02-22T01:13:01.421Z,41.58
2023-02-22T01:15:31.239Z,40.70
2023-02-22T01:18:00.846Z,39.35
2023-02-22T01:20:30.099Z,38.17
2023-02-22T01:23:00.144Z,41.00
2023-02-22T01:25:30.268Z,38.90
2023-02-22T01:27:58.947Z,37.53
2023-02-22T01:30:29.099Z,38.53
2023-02-22T01:32:58.546Z,36.88
2023-02-22T01:35:29.072Z,40.03
2023-02-22T01:37:57.953Z,42.33
2023-02-22T01:40:28.277Z,44.88
2023-02-22T01:42:58.447Z,43.05
2023-02-22T01:45:54.080Z,41.58
2023-02-22T01:48:29.201Z,40.70
2023-02-22T01:51:00.419Z,42.85
2023-02-22T01:53:38.297Z,42.90
2023-02-22T01:56:07.741Z,41.42
2023-02-22T01:58:37.321Z,39.60
2023-02-22T02:01:05.552Z,39.08
2023-02-22T02:03:38.551Z,41.17
2023-02-22T02:06:11.876Z,35.88
2023-02-22T02:08:49.888Z,41.45
2023-02-22T02:11:20.863Z,42.53
2023-02-22T02:13:51.592Z,39.78
2023-02-22T02:16:21.774Z,39.97
2023-02-22T02:18:51.197Z,40.03
2023-02-22T02:21:56.377Z,38.53
2023-02-22T02:24:44.502Z,37.65
2023-02-22T02:27:19.203Z,34.95
2023-02-22T02:30:40.818Z,36.47
2023-02-22T02:33:19.531Z,42.58
2023-02-22T02:35:52.649Z,50.60
2023-02-22T02:38:29.775Z,38.38
2023-02-22T02:41:07.263Z,34.60
2023-02-22T02:43:40.833Z,35.25
2023-02-22T02:46:14.122Z,39.53
2023-02-22T02:48:49.063Z,33.67
2023-02-22T02:51:18.953Z,35.67
2023-02-22T02:53:51.209Z,34.63
2023-02-22T02:56:19.358Z,38.80
2023-02-22T02:58:50.145Z,39.20
2023-02-22T03:01:33.538Z,36.97
2023-02-22T03:04:22.104Z,37.72
2023-02-22T03:07:24.031Z,42.92
2023-02-22T03:10:03.912Z,36.90
2023-02-22T03:12:43.865Z,32.58
2023-02-22T03:15:22.001Z,30.38
2023-02-22T03:17:56.192Z,28.65
2023-02-22T03:20:31.738Z,31.00
2023-02-22T03:23:05.891Z,26.95
2023-02-22T03:25:37.561Z,45.30
2023-02-22T03:28:11.517Z,30.92
2023-02-22T03:30:43.999Z,27.95
2023-02-22T03:35:48.139Z,47.97
2023-02-22T03:38:20.293Z,31.15
2023-02-22T03:40:54.417Z,52.00
2023-02-22T03:43:26.812Z,39.33
2023-02-22T03:45:58.615Z,63.85
2023-02-22T03:48:34.127Z,55.83
2023-02-22T03:51:04.645Z,35.08
2023-02-22T03:53:37.069Z,42.13
2023-02-22T03:56:10.394Z,39.05
2023-02-22T03:58:39.879Z,36.33
2023-02-22T04:01:07.619Z,41.17
2023-02-22T04:03:35.308Z,37.97
2023-02-22T04:06:04.904Z,39.53
2023-02-22T04:08:32.762Z,44.97
2023-02-22T04:11:01.300Z,50.65
2023-02-22T04:13:29.104Z,45.65
2023-02-22T04:15:56.919Z,52.90
2023-02-22T04:18:24.655Z,59.83
2023-02-22T04:20:52.540Z,52.15
2023-02-22T04:23:21.811Z,44.85
2023-02-22T04:25:49.540Z,52.97
2023-02-22T04:28:17.255Z,36.58
2023-02-22T04:30:45.781Z,34.40
2023-02-22T04:33:14.406Z,35.33
2023-02-22T04:35:42.067Z,46.03
2023-02-22T04:38:10.616Z,43.80
2023-02-22T04:40:40.224Z,45.25
2023-02-22T04:43:08.034Z,53.63
2023-02-22T04:45:36.011Z,53.75
2023-02-22T04:48:03.725Z,40.20
2023-02-22T04:50:31.610Z,43.40
2023-02-22T04:52:59.383Z,38.13
2023-02-22T04:55:28.075Z,43.40
2023-02-22T04:57:57.473Z,39.40
2023-02-22T05:00:25.427Z,38.70
2023-02-22T05:02:53.220Z,50.88
2023-02-22T05:05:22.822Z,44.78
2023-02-22T05:07:50.835Z,29.60
2023-02-22T05:10:18.841Z,36.05
2023-02-22T05:12:46.790Z,37.42
2023-02-22T05:15:19.450Z,33.22
2023-02-22T05:17:47.610Z,32.85
2023-02-22T05:20:22.804Z,30.52
2023-02-22T05:22:51.973Z,38.90
2023-02-22T05:25:21.435Z,31.77
2023-02-22T05:27:53.819Z,36.80
2023-02-22T05:30:25.838Z,29.88
2023-02-22T05:32:54.437Z,32.22
2023-02-22T05:35:23.659Z,37.28
2023-02-22T05:37:51.742Z,32.22
2023-02-22T05:40:21.094Z,31.33
2023-02-22T05:42:50.088Z,34.40
2023-02-22T05:45:19.347Z,32.40
2023-02-22T05:47:49.075Z,45.17
2023-02-22T05:50:17.452Z,42.47
2023-02-22T05:52:45.148Z,31.73
2023-02-22T05:55:15.793Z,39.70
2023-02-22T05:57:43.537Z,31.15
2023-02-22T06:00:17.051Z,36.85
2023-02-22T06:02:44.958Z,30.15
2023-02-22T06:05:14.023Z,40.00
2023-02-22T06:07:44.612Z,30.42
2023-02-22T06:10:13.925Z,42.75
2023-02-22T06:12:41.809Z,35.38
2023-02-22T06:15:09.919Z,44.28
2023-02-22T06:17:37.934Z,31.48
2023-02-22T06:20:06.155Z,33.33
2023-02-22T06:22:35.164Z,37.38
2023-02-22T06:25:03.643Z,32.38
2023-02-22T06:27:32.121Z,43.10
2023-02-22T06:30:00.183Z,36.28
2023-02-22T06:32:28.104Z,40.83
2023-02-22T06:34:55.805Z,36.53
2023-02-22T06:37:23.514Z,33.88
2023-02-22T06:39:52.534Z,40.13
2023-02-22T06:42:20.277Z,43.92
2023-02-22T06:44:48.955Z,40.47
2023-02-22T06:47:17.278Z,43.05
2023-02-22T06:49:44.985Z,34.97
2023-02-22T06:52:12.715Z,34.25
2023-02-22T06:54:40.620Z,37.13
2023-02-22T06:57:10.242Z,40.72
2023-02-22T06:59:37.973Z,38.00
2023-02-22T07:02:06.169Z,38.22
2023-02-22T07:04:35.497Z,35.50
2023-02-22T07:07:05.057Z,32.00
2023-02-22T07:09:33.194Z,39.05
2023-02-22T07:12:01.322Z,37.85
2023-02-22T07:14:30.721Z,36.88
2023-02-22T07:16:58.776Z,32.78
2023-02-22T07:19:26.664Z,39.30
2023-02-22T07:21:59.401Z,41.25
2023-02-22T07:24:31.027Z,40.67
2023-02-22T07:26:58.666Z,40.85
2023-02-22T07:29:26.371Z,38.97
2023-02-22T07:31:55.432Z,37.13
2023-02-22T07:34:23.160Z,34.33
2023-02-22T07:36:50.886Z,32.78
2023-02-22T07:39:18.590Z,36.30
2023-02-22T07:41:46.246Z,32.97
2023-02-22T07:44:14.024Z,32.70
2023-02-22T07:46:41.693Z,32.10
2023-02-22T07:49:10.746Z,25.77
2023-02-22T07:51:38.584Z,27.85
2023-02-22T07:54:06.386Z,27.23
2023-02-22T07:56:34.118Z,25.50
2023-02-22T07:59:01.856Z,30.20
2023-02-22T08:01:29.931Z,31.85
2023-02-22T08:03:57.671Z,28.08
2023-02-22T08:06:28.147Z,33.90
2023-02-22T08:08:55.909Z,30.92
2023-02-22T08:11:23.840Z,33.55
2023-02-22T08:13:51.775Z,30.42
2023-02-22T08:16:19.513Z,30.05
2023-02-22T08:18:47.275Z,30.38
2023-02-22T08:21:15.602Z,29.90
2023-02-22T08:23:44.919Z,27.45
2023-02-22T08:26:15.580Z,28.02
2023-02-22T08:28:43.293Z,27.38
2023-02-22T08:31:11.038Z,24.33
2023-02-22T08:33:38.899Z,25.45
2023-02-22T08:36:07.243Z,26.10
2023-02-22T08:38:35.042Z,23.42
2023-02-22T08:41:04.185Z,23.42
2023-02-22T08:43:31.902Z,23.92
2023-02-22T08:45:59.627Z,24.85
2023-02-22T08:48:27.670Z,25.17
2023-02-22T08:50:56.244Z,22.30
2023-02-22T08:53:23.905Z,23.00
2023-02-22T08:55:51.582Z,21.42
2023-02-22T08:58:20.986Z,20.67
2023-02-22T09:00:49.195Z,21.15
2023-02-22T09:03:17.220Z,19.77
2023-02-22T09:05:45.778Z,20.35
2023-02-22T09:08:13.598Z,22.02
2023-02-22T09:10:41.656Z,21.27
2023-02-22T09:13:09.748Z,21.80
2023-02-22T09:15:39.934Z,21.33
2023-02-22T09:18:10.363Z,20.25
2023-02-22T09:20:38.335Z,20.15
2023-02-22T09:23:07.341Z,20.52
2023-02-22T09:25:35.697Z,21.73
2023-02-22T09:28:03.736Z,20.65
2023-02-22T09:30:33.924Z,17.02
2023-02-22T09:33:05.495Z,20.05
2023-02-22T09:35:36.381Z,19.93
2023-02-22T09:38:06.806Z,19.95
2023-02-22T09:40:41.215Z,20.23
2023-02-22T09:43:18.926Z,20.73
2023-02-22T09:46:04.110Z,20.35
2023-02-22T09:48:36.298Z,20.48
2023-02-22T09:51:12.003Z,20.25
2023-02-22T09:53:45.676Z,20.30
2023-02-22T09:56:18.158Z,20.30
2023-02-22T09:58:49.200Z,19.90
2023-02-22T10:01:26.967Z,20.05
2023-02-22T10:04:02.482Z,20.30
2023-02-22T10:06:33.499Z,21.58
2023-02-22T10:09:07.781Z,20.98
2023-02-22T10:11:50.668Z,21.58
2023-02-22T10:14:35.936Z,20.88
2023-02-22T10:17:17.604Z,20.00
2023-02-22T10:20:01.542Z,20.42
2023-02-22T10:22:51.502Z,20.15
2023-02-22T10:25:23.029Z,20.38
2023-02-22T10:27:57.639Z,20.85
2023-02-22T10:30:32.649Z,21.38
2023-02-22T10:33:10.442Z,20.45
2023-02-22T10:35:41.218Z,20.25
2023-02-22T10:38:16.661Z,20.27
2023-02-22T10:40:47.617Z,20.85
2023-02-22T10:43:15.445Z,19.73
2023-02-22T10:45:43.534Z,21.00
2023-02-22T10:48:15.252Z,19.55
2023-02-22T10:50:45.947Z,20.23
2023-02-22T10:53:15.310Z,20.83
2023-02-22T10:56:13.732Z,19.42
2023-02-22T10:58:43.812Z,18.08
2023-02-22T11:01:23.096Z,18.55
2023-02-22T11:04:04.076Z,17.73
2023-02-22T11:06:34.604Z,17.00
2023-02-22T11:09:14.087Z,17.30
2023-02-22T11:11:44.092Z,18.25
2023-02-22T11:14:13.245Z,17.20
2023-02-22T11:16:44.255Z,16.88
2023-02-22T11:19:20.673Z,16.33
2023-02-22T11:21:53.044Z,17.42
2023-02-22T11:24:24.100Z,16.67
2023-02-22T11:26:56.284Z,16.40
2023-02-22T11:29:28.676Z,17.23
2023-02-22T11:31:57.177Z,15.55
2023-02-22T11:34:35.074Z,14.95
2023-02-22T11:37:30.374Z,15.65
2023-02-22T11:40:17.672Z,15.23
2023-02-22T11:42:46.118Z,14.50
2023-02-22T11:45:17.169Z,13.73
2023-02-22T11:47:54.188Z,14.02
2023-02-22T11:50:28.942Z,14.38
2023-02-22T11:53:18.449Z,14.18
2023-02-22T11:55:58.177Z,12.45
2023-02-22T11:58:41.265Z,10.30
2023-02-22T12:01:18.189Z,8.70
2023-02-22T12:04:14.083Z,8.15
2023-02-22T12:06:51.389Z,8.00
2023-02-22T12:09:27.275Z,8.15
2023-02-22T12:12:03.765Z,8.25
2023-02-22T12:14:42.520Z,8.57
2023-02-22T12:17:23.769Z,7.95
2023-02-22T12:19:55.703Z,8.57
2023-02-22T12:22:27.826Z,9.00
2023-02-22T12:25:09.560Z,9.73
2023-02-22T12:27:44.605Z,10.05
2023-02-22T12:30:19.255Z,9.65
2023-02-22T12:32:51.706Z,9.27
2023-02-22T12:37:55.884Z,10.68
2023-02-22T12:40:35.582Z,10.90
2023-02-22T12:43:07.618Z,11.68
2023-02-22T12:45:40.950Z,11.93
2023-02-22T12:48:26.075Z,11.93
2023-02-22T12:50:57.588Z,13.40
2023-02-22T12:53:32.408Z,16.53
2023-02-22T12:56:15.911Z,13.85
2023-02-22T12:58:50.577Z,12.48
2023-02-22T13:01:21.556Z,12.75
2023-02-22T13:03:50.173Z,12.60
2023-02-22T13:06:30.937Z,11.90
2023-02-22T13:09:17.374Z,13.23
2023-02-22T13:11:57.200Z,13.43
2023-02-22T13:14:44.435Z,12.93
2023-02-22T13:17:23.557Z,10.98
2023-02-22T13:20:00.346Z,11.70
2023-02-22T13:22:34.405Z,12.05
2023-02-22T13:25:09.150Z,12.93
2023-02-22T13:27:44.159Z,10.60
2023-02-22T13:30:21.366Z,11.45
2023-02-22T13:33:05.281Z,10.40
2023-02-22T13:35:53.883Z,11.00
2023-02-22T13:38:59.045Z,10.65
2023-02-22T13:41:50.809Z,9.93
2023-02-22T13:44:47.608Z,8.85
2023-02-22T13:47:34.926Z,9.68
2023-02-22T13:50:41.387Z,10.65
2023-02-22T13:53:19.106Z,10.85
2023-02-22T13:55:53.188Z,11.00
2023-02-22T13:58:21.957Z,11.27
2023-02-22T14:01:03.870Z,12.40
2023-02-22T14:03:41.876Z,14.48
2023-02-22T14:06:12.029Z,12.05
2023-02-22T14:08:47.356Z,11.73
2023-02-22T14:11:45.653Z,12.73
2023-02-22T14:14:19.315Z,11.25
2023-02-22T14:17:30.637Z,11.82
2023-02-22T14:20:30.047Z,13.43
2023-02-22T14:22:59.468Z,23.40
2023-02-22T14:25:40.304Z,13.75
2023-02-22T14:28:11.078Z,35.63
2023-02-22T14:30:42.362Z,28.45
2023-02-22T14:33:44.307Z,31.33
2023-02-22T14:36:13.839Z,19.20
2023-02-22T14:38:46.107Z,20.73
2023-02-22T14:41:19.487Z,13.98
2023-02-22T14:43:55.180Z,13.05
2023-02-22T14:46:27.860Z,12.82
2023-02-22T14:49:02.001Z,11.52
2023-02-22T14:51:41.479Z,11.73
2023-02-22T14:54:17.587Z,11.35
2023-02-22T14:56:53.169Z,11.82
2023-02-22T14:59:24.159Z,13.05
2023-02-22T15:02:11.666Z,12.88
2023-02-22T15:04:43.855Z,13.32
2023-02-22T15:07:27.230Z,12.68
2023-02-22T15:10:21.907Z,13.77
2023-02-22T15:12:53.593Z,13.90
2023-02-22T15:15:24.471Z,14.40
2023-02-22T15:17:57.408Z,13.65
2023-02-22T15:20:26.957Z,12.32
2023-02-22T15:23:01.279Z,12.93
2023-02-22T15:25:31.794Z,12.77
2023-02-22T15:28:04.946Z,13.10
2023-02-22T15:30:34.991Z,13.00
2023-02-22T15:33:16.367Z,13.40
2023-02-22T15:35:45.133Z,13.93
2023-02-22T15:38:23.800Z,13.15
2023-02-22T15:41:02.595Z,13.13
2023-02-22T15:43:32.250Z,12.65
2023-02-22T15:46:01.845Z,12.57
2023-02-22T15:48:31.675Z,13.23
2023-02-22T15:51:06.566Z,12.65
2023-02-22T15:53:41.761Z,14.18
2023-02-22T15:56:13.551Z,12.57
2023-02-22T15:58:42.394Z,12.50
2023-02-22T16:01:14.052Z,12.88
2023-02-22T16:03:47.065Z,14.30
2023-02-22T16:06:21.014Z,13.50
2023-02-22T16:08:55.479Z,12.70
2023-02-22T16:11:30.061Z,12.93
2023-02-22T16:14:01.326Z,13.55
2023-02-22T16:16:31.424Z,14.27
2023-02-22T16:19:27.724Z,13.40
2023-02-22T16:21:58.257Z,15.18
2023-02-22T16:24:32.568Z,15.48
2023-02-22T16:27:08.434Z,15.18
2023-02-22T16:29:36.300Z,16.00
2023-02-22T16:32:04.739Z,16.20
2023-02-22T16:34:32.543Z,16.05
2023-02-22T16:37:01.260Z,15.70
2023-02-22T16:39:31.998Z,15.88
2023-02-22T16:42:01.943Z,16.30
2023-02-22T16:44:30.756Z,16.08
2023-02-22T16:47:00.574Z,18.88
2023-02-22T16:49:28.653Z,19.02
2023-02-22T16:52:01.646Z,17.45
2023-02-22T16:54:36.585Z,17.25
2023-02-22T16:57:06.732Z,16.15
2023-02-22T16:59:39.644Z,16.08
2023-02-22T17:02:13.124Z,14.98
2023-02-22T17:04:41.028Z,16.55
2023-02-22T17:07:09.319Z,16.55
2023-02-22T17:09:39.523Z,18.40
2023-02-22T17:12:07.866Z,20.02
2023-02-22T17:14:40.394Z,18.25
2023-02-22T17:17:09.118Z,19.00
2023-02-22T17:19:37.756Z,18.40
2023-02-22T17:22:10.323Z,21.40
2023-02-22T17:24:39.831Z,20.92
2023-02-22T17:27:07.953Z,18.80
2023-02-22T17:29:35.735Z,18.55
2023-02-22T17:32:03.678Z,17.67
2023-02-22T17:34:32.785Z,17.30
2023-02-22T17:37:05.993Z,18.35
2023-02-22T17:39:35.812Z,17.13
2023-02-22T17:42:08.331Z,16.88
2023-02-22T17:47:03.594Z,20.25
2023-02-22T17:49:31.396Z,19.73
2023-02-22T17:52:02.746Z,21.85
2023-02-22T17:54:30.594Z,21.60
2023-02-22T17:57:01.524Z,23.45
2023-02-22T17:59:30.705Z,25.17
2023-02-22T18:01:58.614Z,25.00
2023-02-22T18:04:26.528Z,26.15
2023-02-22T18:06:54.272Z,26.05
2023-02-22T18:09:24.344Z,26.50
2023-02-22T18:11:52.275Z,27.58
2023-02-22T18:14:20.080Z,27.63
2023-02-22T18:16:49.349Z,28.35
2023-02-22T18:19:20.034Z,29.30
2023-02-22T18:21:52.726Z,28.95
2023-02-22T18:24:20.537Z,28.45
2023-02-22T18:26:48.358Z,29.02
2023-02-22T18:29:16.195Z,28.52
2023-02-22T18:31:45.423Z,30.83
2023-02-22T18:34:17.624Z,28.63
2023-02-22T18:36:45.462Z,28.05
2023-02-22T18:39:13.239Z,28.27
2023-02-22T18:41:41.012Z,29.48
2023-02-22T18:44:11.057Z,30.52
2023-02-22T18:46:38.995Z,30.20
2023-02-22T18:49:06.758Z,29.63
2023-02-22T18:51:36.052Z,30.80
2023-02-22T18:54:04.060Z,27.65
2023-02-22T18:56:31.831Z,28.15
2023-02-22T18:59:01.429Z,28.58
2023-02-22T19:01:31.092Z,26.85
2023-02-22T19:03:59.299Z,27.42
2023-02-22T19:06:27.057Z,28.27
2023-02-22T19:08:56.198Z,27.88
2023-02-22T19:11:25.571Z,28.13
2023-02-22T19:14:05.369Z,27.85
2023-02-22T19:17:04.742Z,28.33
2023-02-22T19:19:38.510Z,26.15
2023-02-22T19:22:06.330Z,27.92
2023-02-22T19:24:36.324Z,27.55
2023-02-22T19:27:05.388Z,28.58
2023-02-22T19:29:33.183Z,27.33
2023-02-22T19:32:01.049Z,30.08
2023-02-22T19:34:31.229Z,27.60
2023-02-22T19:37:00.885Z,25.73
2023-02-22T19:39:29.956Z,27.95
2023-02-22T19:41:59.764Z,26.33
2023-02-22T19:44:28.749Z,27.25
2023-02-22T19:46:56.535Z,26.58
2023-02-22T19:51:53.584Z,30.63
2023-02-22T19:54:23.816Z,30.77
2023-02-22T19:56:51.902Z,29.25
2023-02-22T19:59:24.448Z,30.13
2023-02-22T20:02:04.871Z,28.80
2023-02-22T20:04:33.512Z,29.08
2023-02-22T20:07:02.069Z,30.33
2023-02-22T20:09:37.276Z,29.25
2023-02-22T20:12:08.819Z,28.10
2023-02-22T20:14:38.947Z,29.20
2023-02-22T20:17:07.741Z,28.42
2023-02-22T20:19:40.309Z,29.25
2023-02-22T20:22:08.209Z,29.38
2023-02-22T20:24:38.688Z,30.48
2023-02-22T20:27:06.467Z,27.90
2023-02-22T20:29:36.272Z,30.42
2023-02-22T20:32:07.658Z,30.95
2023-02-22T20:34:36.261Z,30.17
2023-02-22T20:37:04.781Z,30.73
2023-02-22T20:39:34.807Z,30.13
2023-02-22T20:42:04.728Z,29.23
2023-02-22T20:44:32.582Z,30.08
2023-02-22T20:47:00.460Z,28.35
2023-02-22T20:49:29.850Z,29.98
2023-02-22T20:51:57.788Z,29.67
2023-02-22T20:54:25.865Z,31.10
2023-02-22T20:56:53.825Z,25.83
2023-02-22T20:59:22.149Z,31.63
2023-02-22T21:01:50.442Z,32.35
2023-02-22T21:04:18.830Z,29.98
2023-02-22T21:06:55.709Z,30.80
2023-02-22T21:09:26.208Z,31.92
2023-02-22T21:11:54.061Z,34.67
2023-02-22T21:14:24.970Z,34.45
2023-02-22T21:16:54.258Z,32.33
2023-02-22T21:19:26.402Z,31.13
2023-02-22T21:21:59.237Z,35.45
2023-02-22T21:24:28.923Z,34.22
2023-02-22T21:26:58.552Z,33.40
2023-02-22T21:29:26.382Z,36.63
2023-02-22T21:31:54.359Z,32.55
2023-02-22T21:34:22.487Z,30.45
2023-02-22T21:36:50.575Z,32.05
2023-02-22T21:39:19.994Z,36.75
2023-02-22T21:41:49.711Z,34.05
2023-02-22T21:44:18.773Z,34.28
2023-02-22T21:46:48.831Z,35.70
2023-02-22T21:49:17.127Z,33.80
2023-02-22T21:51:45.483Z,37.20
2023-02-22T21:54:13.893Z,36.72
2023-02-22T21:56:44.199Z,36.65
2023-02-22T21:59:14.703Z,36.78
2023-02-22T22:01:47.225Z,38.92
2023-02-22T22:04:19.800Z,39.00
2023-02-22T22:09:19.843Z,41.60
2023-02-22T22:11:51.195Z,37.42
2023-02-22T22:14:19.894Z,37.15
2023-02-22T22:16:50.137Z,38.13
2023-02-22T22:19:18.378Z,40.22
2023-02-22T22:21:49.921Z,38.00
2023-02-22T22:24:20.550Z,36.33
2023-02-22T22:26:54.579Z,38.83
2023-02-22T22:29:23.697Z,42.13
2023-02-22T22:31:52.287Z,43.53
2023-02-22T22:34:20.098Z,36.42
2023-02-22T22:36:48.088Z,39.63
2023-02-22T22:39:16.137Z,36.95
2023-02-22T22:41:45.174Z,40.45
2023-02-22T22:44:16.171Z,40.42
2023-02-22T22:46:49.084Z,45.05
2023-02-22T22:49:21.006Z,41.55
2023-02-22T22:51:49.274Z,40.08
2023-02-22T23:01:52.513Z,39.53
2023-02-22T23:04:24.097Z,41.58
2023-02-22T23:06:53.627Z,41.92
2023-02-22T23:09:24.879Z,47.38
2023-02-22T23:11:54.973Z,51.28
2023-02-22T23:14:24.162Z,42.92
2023-02-22T23:16:56.512Z,48.08
2023-02-22T23:19:24.213Z,45.90
2023-02-22T23:21:52.068Z,41.45
2023-02-22T23:24:21.190Z,49.22
2023-02-22T23:26:49.531Z,44.78
2023-02-22T23:29:18.584Z,52.38
2023-02-22T23:31:48.299Z,49.42
2023-02-22T23:34:18.615Z,52.80
2023-02-22T23:36:46.844Z,47.63
2023-02-22T23:39:17.445Z,48.72
2023-02-22T23:41:45.090Z,51.67
2023-02-22T23:44:17.362Z,47.40
2023-02-22T23:46:48.077Z,58.03
2023-02-22T23:49:20.329Z,51.45
2023-02-22T23:51:49.014Z,49.20
2023-02-22T23:54:20.251Z,52.08
2023-02-22T23:56:56.301Z,56.90
2023-02-22T23:59:24.821Z,53.88
